createdAt,value
2022-10-02T00:01:55.871Z,1.98
2022-10-02T00:04:36.797Z,2.63
2022-10-02T00:07:10.515Z,2.63
2022-10-02T00:09:52.355Z,2.47
2022-10-02T00:12:23.961Z,2.67
2022-10-02T00:14:55.486Z,2.10
2022-10-02T00:17:26.296Z,1.85
2022-10-02T00:19:56.632Z,2.63
2022-10-02T00:22:45.915Z,2.65
2022-10-02T00:25:24.233Z,2.47
2022-10-02T00:27:59.809Z,2.30
2022-10-02T00:30:31.548Z,3.85
2022-10-02T00:33:19.756Z,2.97
2022-10-02T00:36:11.989Z,2.63
2022-10-02T00:39:11.598Z,2.35
2022-10-02T00:42:31.306Z,2.25
2022-10-02T00:45:19.357Z,2.80
2022-10-02T00:48:03.234Z,2.60
2022-10-02T00:50:52.775Z,2.97
2022-10-02T00:53:38.011Z,2.67
2022-10-02T00:56:19.577Z,2.65
2022-10-02T00:59:00.077Z,3.35
2022-10-02T01:01:41.514Z,2.60
2022-10-02T01:04:14.320Z,3.88
2022-10-02T01:06:41.459Z,2.80
2022-10-02T01:09:08.088Z,3.45
2022-10-02T01:11:35.392Z,3.35
2022-10-02T01:14:02.684Z,2.80
2022-10-02T01:16:29.971Z,3.67
2022-10-02T01:18:56.834Z,3.20
2022-10-02T01:21:42.181Z,3.13
2022-10-02T01:24:31.974Z,3.35
2022-10-02T01:26:58.861Z,2.35
2022-10-02T01:29:25.678Z,2.40
2022-10-02T01:31:52.554Z,2.22
2022-10-02T01:34:19.156Z,2.33
2022-10-02T01:36:54.272Z,2.25
2022-10-02T01:39:22.539Z,2.50
2022-10-02T01:41:49.171Z,3.00
2022-10-02T01:44:16.313Z,2.92
2022-10-02T01:46:48.761Z,2.95
2022-10-02T01:49:31.169Z,2.28
2022-10-02T01:52:20.141Z,2.55
2022-10-02T01:54:57.779Z,3.35
2022-10-02T01:57:35.822Z,2.33
2022-10-02T02:00:11.013Z,2.65
2022-10-02T02:02:37.584Z,2.53
2022-10-02T02:05:17.854Z,2.10
2022-10-02T02:07:52.311Z,2.40
2022-10-02T02:10:26.924Z,2.63
2022-10-02T02:12:59.312Z,2.65
2022-10-02T02:15:34.962Z,2.25
2022-10-02T02:18:11.616Z,2.47
2022-10-02T02:20:47.292Z,2.33
2022-10-02T02:23:24.536Z,2.33
2022-10-02T02:25:58.166Z,2.30
2022-10-02T02:28:27.745Z,2.35
2022-10-02T02:30:55.332Z,1.92
2022-10-02T02:33:27.615Z,2.20
2022-10-02T02:36:01.925Z,2.25
2022-10-02T02:38:32.192Z,2.58
2022-10-02T02:41:05.176Z,2.75
2022-10-02T02:43:43.426Z,2.67
2022-10-02T02:46:20.634Z,2.03
2022-10-02T02:48:55.057Z,1.95
2022-10-02T02:51:29.985Z,1.88
2022-10-02T02:54:03.265Z,2.67
2022-10-02T02:56:32.438Z,2.42
2022-10-02T02:59:05.774Z,2.60
2022-10-02T03:01:32.393Z,2.00
2022-10-02T03:03:59.036Z,2.95
2022-10-02T03:06:31.927Z,2.47
2022-10-02T03:09:00.272Z,3.10
2022-10-02T03:11:57.261Z,2.75
2022-10-02T03:14:45.762Z,2.38
2022-10-02T03:17:12.313Z,2.25
2022-10-02T03:20:25.812Z,2.63
2022-10-02T03:22:55.044Z,3.28
2022-10-02T03:25:31.703Z,2.72
2022-10-02T03:28:54.323Z,2.55
2022-10-02T03:31:22.482Z,2.78
2022-10-02T03:33:51.077Z,2.30
2022-10-02T03:36:20.529Z,2.08
2022-10-02T03:39:00.740Z,2.28
2022-10-02T03:41:35.944Z,2.25
2022-10-02T03:44:02.468Z,2.85
2022-10-02T03:46:29.008Z,2.60
2022-10-02T03:48:56.717Z,3.08
2022-10-02T03:51:23.994Z,2.10
2022-10-02T03:53:50.858Z,2.92
2022-10-02T03:56:51.959Z,3.17
2022-10-02T03:59:35.065Z,2.65
2022-10-02T04:02:09.609Z,2.22
2022-10-02T04:04:54.585Z,2.10
2022-10-02T04:07:29.861Z,2.85
2022-10-02T04:10:31.764Z,2.85
2022-10-02T04:13:16.149Z,3.40
2022-10-02T04:15:58.064Z,2.67
2022-10-02T04:18:54.116Z,2.42
2022-10-02T04:21:34.337Z,2.45
2022-10-02T04:24:51.754Z,2.23
2022-10-02T04:27:52.374Z,2.20
2022-10-02T04:30:20.302Z,2.33
2022-10-02T04:32:47.581Z,2.22
2022-10-02T04:35:32.557Z,2.03
2022-10-02T04:38:09.587Z,2.35
2022-10-02T04:40:51.079Z,2.13
2022-10-02T04:43:31.488Z,2.22
2022-10-02T04:46:00.882Z,2.50
2022-10-02T04:48:39.997Z,2.47
2022-10-02T04:51:25.657Z,1.98
2022-10-02T04:54:07.373Z,1.98
2022-10-02T04:56:54.285Z,2.35
2022-10-02T04:59:46.670Z,1.92
2022-10-02T05:02:44.235Z,1.95
2022-10-02T05:05:47.246Z,2.20
2022-10-02T05:08:20.011Z,1.45
2022-10-02T05:11:14.636Z,1.65
2022-10-02T05:14:21.679Z,1.70
2022-10-02T05:17:21.785Z,1.33
2022-10-02T05:20:34.146Z,1.27
2022-10-02T05:23:00.774Z,1.40
2022-10-02T05:25:46.380Z,1.48
2022-10-02T05:28:39.176Z,1.50
2022-10-02T05:31:14.853Z,1.10
2022-10-02T05:34:10.269Z,1.60
2022-10-02T05:36:42.750Z,1.67
2022-10-02T05:39:18.305Z,1.50
2022-10-02T05:41:59.501Z,1.35
2022-10-02T05:47:18.254Z,1.15
2022-10-02T05:49:58.276Z,1.13
2022-10-02T05:52:58.074Z,1.65
2022-10-02T05:55:47.201Z,1.42
2022-10-02T05:58:34.580Z,1.52
2022-10-02T06:01:12.788Z,1.20
2022-10-02T06:04:01.811Z,1.95
2022-10-02T06:06:48.709Z,1.90
2022-10-02T06:09:20.261Z,2.10
2022-10-02T06:11:56.117Z,2.20
2022-10-02T06:14:47.291Z,2.70
2022-10-02T06:17:24.438Z,2.80
2022-10-02T06:20:03.509Z,2.40
2022-10-02T06:23:09.110Z,4.07
2022-10-02T06:26:00.371Z,4.82
2022-10-02T06:31:16.025Z,2.50
2022-10-02T06:33:42.943Z,1.98
2022-10-02T06:36:21.894Z,2.28
2022-10-02T06:39:07.072Z,1.67
2022-10-02T06:41:55.385Z,2.40
2022-10-02T06:44:28.004Z,1.80
2022-10-02T06:47:19.571Z,1.75
2022-10-02T06:49:58.981Z,2.25
2022-10-02T06:52:44.883Z,2.20
2022-10-02T06:55:32.977Z,1.67
2022-10-02T06:58:18.416Z,2.10
2022-10-02T07:01:04.423Z,1.77
2022-10-02T07:03:31.017Z,1.75
2022-10-02T07:06:12.355Z,2.00
2022-10-02T07:08:54.156Z,1.73
2022-10-02T07:11:32.837Z,1.83
2022-10-02T07:14:17.651Z,1.63
2022-10-02T07:17:11.482Z,1.80
2022-10-02T07:19:59.768Z,1.42
2022-10-02T07:22:50.266Z,1.33
2022-10-02T07:25:56.176Z,1.83
2022-10-02T07:28:46.028Z,1.42
2022-10-02T07:31:39.382Z,1.50
2022-10-02T07:34:18.091Z,1.95
2022-10-02T07:37:10.832Z,1.70
2022-10-02T07:40:12.029Z,2.90
2022-10-02T07:43:01.631Z,2.35
2022-10-02T07:45:37.257Z,2.70
2022-10-02T07:48:26.247Z,3.03
2022-10-02T07:51:28.047Z,4.03
2022-10-02T07:54:03.252Z,2.40
2022-10-02T07:56:31.183Z,2.00
2022-10-02T07:59:36.920Z,1.50
2022-10-02T08:02:13.643Z,2.20
2022-10-02T08:04:40.985Z,3.00
2022-10-02T08:07:07.791Z,2.72
2022-10-02T08:09:45.761Z,3.83
2022-10-02T08:12:15.290Z,3.08
2022-10-02T08:14:45.671Z,2.60
2022-10-02T08:17:27.562Z,1.75
2022-10-02T08:20:03.615Z,1.55
2022-10-02T08:22:38.601Z,1.30
2022-10-02T08:25:19.993Z,3.88
2022-10-02T08:28:01.883Z,1.90
2022-10-02T08:30:28.566Z,1.70
2022-10-02T08:32:55.208Z,1.80
2022-10-02T08:35:22.365Z,1.25
2022-10-02T08:38:24.989Z,1.27
2022-10-02T08:41:11.775Z,2.13
2022-10-02T08:43:59.657Z,5.97
2022-10-02T08:46:41.203Z,1.70
2022-10-02T08:49:41.745Z,1.40
2022-10-02T08:52:14.113Z,1.55
2022-10-02T08:55:01.188Z,2.13
2022-10-02T08:57:39.556Z,1.40
2022-10-02T09:00:15.127Z,1.92
2022-10-02T09:03:15.704Z,5.38
2022-10-02T09:06:07.125Z,4.00
2022-10-02T09:09:10.872Z,4.30
2022-10-02T09:12:26.298Z,2.30
2022-10-02T09:15:05.639Z,1.80
2022-10-02T09:17:47.063Z,1.83
2022-10-02T09:20:20.283Z,1.40
2022-10-02T09:23:22.718Z,2.22
2022-10-02T09:26:03.889Z,1.27
2022-10-02T09:31:46.173Z,1.50
2022-10-02T09:34:34.165Z,0.95
2022-10-02T09:37:24.862Z,1.15
2022-10-02T09:40:29.573Z,1.15
2022-10-02T09:43:14.252Z,1.00
2022-10-02T09:45:56.201Z,1.13
2022-10-02T09:48:53.130Z,1.20
2022-10-02T09:51:40.272Z,1.20
2022-10-02T09:54:37.551Z,1.27
2022-10-02T09:57:41.159Z,1.10
2022-10-02T10:00:38.351Z,1.20
2022-10-02T10:03:36.583Z,1.30
2022-10-02T10:06:50.882Z,1.13
2022-10-02T10:09:17.397Z,1.17
2022-10-02T10:12:09.351Z,1.10
2022-10-02T10:15:13.760Z,1.05
2022-10-02T10:18:01.966Z,0.90
2022-10-02T10:20:37.821Z,1.00
2022-10-02T10:23:36.088Z,1.40
2022-10-02T10:26:43.257Z,1.10
2022-10-02T10:29:39.845Z,1.17
2022-10-02T10:32:38.821Z,1.10
2022-10-02T10:35:20.721Z,1.27
2022-10-02T10:38:21.532Z,1.05
2022-10-02T10:41:41.393Z,1.13
2022-10-02T10:44:38.906Z,0.98
2022-10-02T10:47:23.980Z,1.13
2022-10-02T10:49:57.669Z,1.30
2022-10-02T10:52:39.285Z,1.13
2022-10-02T10:55:33.845Z,1.00
2022-10-02T10:58:56.330Z,1.13
2022-10-02T11:01:53.011Z,0.95
2022-10-02T11:04:24.775Z,0.90
2022-10-02T11:07:25.572Z,0.95
2022-10-02T11:10:19.166Z,1.08
2022-10-02T11:13:16.161Z,1.10
2022-10-02T11:16:23.428Z,0.95
2022-10-02T11:19:21.788Z,1.25
2022-10-02T11:22:04.068Z,1.15
2022-10-02T11:24:33.935Z,0.80
2022-10-02T11:27:24.851Z,0.93
2022-10-02T11:30:00.527Z,1.20
2022-10-02T11:32:42.989Z,1.00
2022-10-02T11:35:27.708Z,1.10
2022-10-02T11:38:18.968Z,0.93
2022-10-02T11:43:59.707Z,1.20
2022-10-02T11:47:07.309Z,1.20
2022-10-02T11:50:06.058Z,1.30
2022-10-02T11:52:45.923Z,0.93
2022-10-02T11:55:36.766Z,1.10
2022-10-02T11:58:12.621Z,1.17
2022-10-02T12:01:04.426Z,1.33
2022-10-02T12:03:55.899Z,1.35
2022-10-02T12:06:51.660Z,1.30
2022-10-02T12:09:54.867Z,1.50
2022-10-02T12:12:55.510Z,1.20
2022-10-02T12:15:49.866Z,1.58
2022-10-02T12:18:39.621Z,1.45
2022-10-02T12:22:01.736Z,1.50
2022-10-02T12:24:56.150Z,1.13
2022-10-02T12:27:36.791Z,1.10
2022-10-02T12:30:08.117Z,1.20
2022-10-02T12:32:52.867Z,1.17
2022-10-02T12:35:56.842Z,0.90
2022-10-02T12:38:38.709Z,1.17
2022-10-02T12:41:36.443Z,1.40
2022-10-02T12:44:06.120Z,2.00
2022-10-02T12:46:51.389Z,3.53
2022-10-02T12:49:34.272Z,3.50
2022-10-02T12:52:28.448Z,1.20
2022-10-02T12:55:33.946Z,1.38
2022-10-02T12:58:10.290Z,1.50
2022-10-02T13:01:02.190Z,1.00
2022-10-02T13:03:40.768Z,0.90
2022-10-02T13:06:25.702Z,0.90
2022-10-02T13:09:19.822Z,1.17
2022-10-02T13:12:18.195Z,1.40
2022-10-02T13:15:03.391Z,1.60
2022-10-02T13:17:49.136Z,1.63
2022-10-02T13:20:28.135Z,1.20
2022-10-02T13:23:13.116Z,1.70
2022-10-02T13:25:57.153Z,1.33
2022-10-02T13:28:47.006Z,1.20
2022-10-02T13:31:29.120Z,1.35
2022-10-02T13:34:29.721Z,1.50
2022-10-02T13:37:00.456Z,1.48
2022-10-02T13:39:54.537Z,1.67
2022-10-02T13:42:38.880Z,1.27
2022-10-02T13:45:36.337Z,1.15
2022-10-02T13:48:18.248Z,1.00
2022-10-02T13:51:13.739Z,1.50
2022-10-02T13:54:23.684Z,1.73
2022-10-02T13:56:58.167Z,1.40
2022-10-02T13:59:33.489Z,1.38
2022-10-02T14:02:23.353Z,1.70
2022-10-02T14:04:58.334Z,1.50
2022-10-02T14:08:00.141Z,1.08
2022-10-02T14:11:09.671Z,1.55
2022-10-02T14:14:07.529Z,1.40
2022-10-02T14:16:53.437Z,1.65
2022-10-02T14:19:26.874Z,1.38
2022-10-02T14:22:09.304Z,1.60
2022-10-02T14:25:00.399Z,1.52
2022-10-02T14:27:49.925Z,1.98
2022-10-02T14:30:22.034Z,2.17
2022-10-02T14:33:03.501Z,2.05
2022-10-02T14:35:35.663Z,2.10
2022-10-02T14:38:27.091Z,4.00
2022-10-02T14:40:55.765Z,2.92
2022-10-02T14:43:28.044Z,3.10
2022-10-02T14:46:00.281Z,2.03
2022-10-02T14:48:29.570Z,2.42
2022-10-02T14:51:23.800Z,2.25
2022-10-02T14:54:01.263Z,2.20
2022-10-02T14:56:49.705Z,2.17
2022-10-02T14:59:59.650Z,2.75
2022-10-02T15:02:48.942Z,2.75
2022-10-02T15:05:42.741Z,2.28
2022-10-02T15:08:17.719Z,1.67
2022-10-02T15:10:49.194Z,1.33
2022-10-02T15:13:55.253Z,1.35
2022-10-02T15:16:45.545Z,1.23
2022-10-02T15:19:18.983Z,1.13
2022-10-02T15:21:54.963Z,1.33
2022-10-02T15:24:27.565Z,1.90
2022-10-02T15:27:04.184Z,1.58
2022-10-02T15:29:39.850Z,1.55
2022-10-02T15:32:44.215Z,1.50
2022-10-02T15:35:19.890Z,1.67
2022-10-02T15:37:55.371Z,1.65
2022-10-02T15:40:33.794Z,1.55
2022-10-02T15:43:15.608Z,1.45
2022-10-02T15:45:50.184Z,1.73
2022-10-02T15:48:29.886Z,1.30
2022-10-02T15:51:50.412Z,1.50
2022-10-02T15:54:45.707Z,1.87
2022-10-02T15:57:15.689Z,2.00
2022-10-02T15:59:48.366Z,2.35
2022-10-02T16:02:26.349Z,2.65
2022-10-02T16:05:08.338Z,2.50
2022-10-02T16:07:41.336Z,3.90
2022-10-02T16:10:37.418Z,2.90
2022-10-02T16:13:19.070Z,3.40
2022-10-02T16:15:48.442Z,3.33
2022-10-02T16:18:39.042Z,3.03
2022-10-02T16:21:23.853Z,3.75
2022-10-02T16:24:01.789Z,3.25
2022-10-02T16:26:43.269Z,3.10
2022-10-02T16:29:23.469Z,2.17
2022-10-02T16:31:53.139Z,3.07
2022-10-02T16:34:38.793Z,2.25
2022-10-02T16:37:20.547Z,2.05
2022-10-02T16:40:00.430Z,2.20
2022-10-02T16:42:40.123Z,2.88
2022-10-02T16:45:28.457Z,3.25
2022-10-02T16:48:19.162Z,2.92
2022-10-02T16:51:05.271Z,6.15
2022-10-02T16:53:45.502Z,4.22
2022-10-02T16:56:32.499Z,4.07
2022-10-02T16:59:09.799Z,3.53
2022-10-02T17:01:59.441Z,3.13
2022-10-02T17:04:42.908Z,4.00
2022-10-02T17:07:15.443Z,3.47
2022-10-02T17:09:47.740Z,3.40
2022-10-02T17:12:23.752Z,3.45
2022-10-02T17:15:05.499Z,3.00
2022-10-02T17:17:59.725Z,3.20
2022-10-02T17:20:34.102Z,9.18
2022-10-02T17:23:20.764Z,7.63
2022-10-02T17:25:59.392Z,17.75
2022-10-02T17:28:29.824Z,13.20
2022-10-02T17:31:15.207Z,9.20
2022-10-02T17:34:00.879Z,8.63
2022-10-02T17:36:47.831Z,8.50
2022-10-02T17:39:39.921Z,9.20
2022-10-02T17:42:21.827Z,9.10
2022-10-02T17:45:04.357Z,6.80
2022-10-02T17:47:36.980Z,5.53
2022-10-02T17:50:22.282Z,5.22
2022-10-02T17:53:40.507Z,5.03
2022-10-02T17:56:30.776Z,4.50
2022-10-02T17:59:03.449Z,3.93
2022-10-02T18:02:06.330Z,3.80
2022-10-02T18:05:03.601Z,2.72
2022-10-02T18:07:39.210Z,2.83
2022-10-02T18:10:11.699Z,2.60
2022-10-02T18:12:53.222Z,2.55
2022-10-02T18:15:33.587Z,2.80
2022-10-02T18:18:45.413Z,2.40
2022-10-02T18:21:23.978Z,2.30
2022-10-02T18:24:12.267Z,2.08
2022-10-02T18:27:11.132Z,2.22
2022-10-02T18:30:13.020Z,2.60
2022-10-02T18:33:14.499Z,2.67
2022-10-02T18:36:12.687Z,2.70
2022-10-02T18:38:54.939Z,2.90
2022-10-02T18:41:27.652Z,5.32
2022-10-02T18:44:07.662Z,3.00
2022-10-02T18:46:37.381Z,2.83
2022-10-02T18:49:04.192Z,2.50
2022-10-02T18:51:31.823Z,2.88
2022-10-02T18:54:40.777Z,2.60
2022-10-02T18:57:07.486Z,2.60
2022-10-02T18:59:55.800Z,2.75
2022-10-02T19:02:40.830Z,4.03
2022-10-02T19:05:30.067Z,2.80
2022-10-02T19:08:51.038Z,5.88
2022-10-02T19:11:18.817Z,2.22
2022-10-02T19:13:49.101Z,2.60
2022-10-02T19:16:25.414Z,2.70
2022-10-02T19:19:20.169Z,2.33
2022-10-02T19:21:48.377Z,2.40
2022-10-02T19:24:24.954Z,2.05
2022-10-02T19:27:02.469Z,2.22
2022-10-02T19:29:39.756Z,2.03
2022-10-02T19:32:18.536Z,2.80
2022-10-02T19:34:55.091Z,2.60
2022-10-02T19:37:22.964Z,2.20
2022-10-02T19:39:54.183Z,3.05
2022-10-02T19:42:26.443Z,3.40
2022-10-02T19:45:02.844Z,3.10
2022-10-02T19:47:45.421Z,2.88
2022-10-02T19:50:28.810Z,3.72
2022-10-02T19:53:01.638Z,3.25
2022-10-02T19:55:35.911Z,3.13
2022-10-02T19:58:09.155Z,3.45
2022-10-02T20:00:38.666Z,3.40
2022-10-02T20:03:14.772Z,3.10
2022-10-02T20:05:42.852Z,3.08
2022-10-02T20:08:17.559Z,3.20
2022-10-02T20:10:51.913Z,3.20
2022-10-02T20:13:37.438Z,3.00
2022-10-02T20:16:41.682Z,3.40
2022-10-02T20:19:16.633Z,3.22
2022-10-02T20:21:48.554Z,4.10
2022-10-02T20:24:26.451Z,3.33
2022-10-02T20:27:01.173Z,3.45
2022-10-02T20:29:36.832Z,3.15
2022-10-02T20:32:11.780Z,2.33
2022-10-02T20:34:44.236Z,2.83
2022-10-02T20:37:17.321Z,2.90
2022-10-02T20:39:55.216Z,3.08
2022-10-02T20:42:35.538Z,2.85
2022-10-02T20:45:02.247Z,3.50
2022-10-02T20:47:31.905Z,2.40
2022-10-02T20:50:31.256Z,2.65
2022-10-02T20:53:09.900Z,2.80
2022-10-02T20:55:59.604Z,2.38
2022-10-02T20:58:35.616Z,2.70
2022-10-02T21:01:19.849Z,2.38
2022-10-02T21:04:34.950Z,2.60
2022-10-02T21:07:31.009Z,6.18
2022-10-02T21:10:39.320Z,2.70
2022-10-02T21:13:43.655Z,3.85
2022-10-02T21:16:29.423Z,3.20
2022-10-02T21:19:12.080Z,4.15
2022-10-02T21:22:11.588Z,3.55
2022-10-02T21:25:07.473Z,3.60
2022-10-02T21:28:01.869Z,3.50
2022-10-02T21:30:35.091Z,3.45
2022-10-02T21:33:19.549Z,2.90
2022-10-02T21:35:58.741Z,3.10
2022-10-02T21:38:49.518Z,2.60
2022-10-02T21:41:49.019Z,4.05
2022-10-02T21:44:49.394Z,5.70
2022-10-02T21:47:27.810Z,3.70
2022-10-02T21:50:22.511Z,6.50
2022-10-02T21:53:30.291Z,3.35
2022-10-02T21:56:32.338Z,3.90
2022-10-02T21:59:29.983Z,3.20
2022-10-02T22:02:29.202Z,5.85
2022-10-02T22:05:33.411Z,8.93
2022-10-02T22:08:12.439Z,3.38
2022-10-02T22:10:48.162Z,2.88
2022-10-02T22:13:33.249Z,2.47
2022-10-02T22:16:23.273Z,2.47
2022-10-02T22:18:58.237Z,2.20
2022-10-02T22:21:47.641Z,2.10
2022-10-02T22:24:32.957Z,1.98
2022-10-02T22:27:05.793Z,2.22
2022-10-02T22:29:35.406Z,1.90
2022-10-02T22:32:38.845Z,5.10
2022-10-02T22:35:19.611Z,4.15
2022-10-02T22:38:11.886Z,1.73
2022-10-02T22:40:52.955Z,2.92
2022-10-02T22:43:22.592Z,1.95
2022-10-02T22:45:57.529Z,2.00
2022-10-02T22:48:31.749Z,1.77
2022-10-02T22:51:25.796Z,1.92
2022-10-02T22:54:15.797Z,1.90
2022-10-02T22:57:12.775Z,1.67
2022-10-02T22:59:55.734Z,1.75
2022-10-02T23:02:31.460Z,1.85
2022-10-02T23:05:06.116Z,1.83
2022-10-02T23:07:49.650Z,1.90
2022-10-02T23:10:27.585Z,2.00
2022-10-02T23:13:05.815Z,5.97
2022-10-02T23:15:53.758Z,1.83
2022-10-02T23:18:23.476Z,3.03
2022-10-02T23:21:10.641Z,2.05
2022-10-02T23:23:43.139Z,2.28
2022-10-02T23:26:26.640Z,2.05
2022-10-02T23:29:17.863Z,2.00
2022-10-02T23:31:54.325Z,2.33
2022-10-02T23:34:34.393Z,1.88
2022-10-02T23:37:13.719Z,1.73
2022-10-02T23:40:05.563Z,2.20
2022-10-02T23:42:41.190Z,1.70
2022-10-02T23:45:24.121Z,1.55
2022-10-02T23:48:03.456Z,1.88
2022-10-02T23:51:00.215Z,2.58
2022-10-02T23:53:54.628Z,1.70
2022-10-02T23:56:39.478Z,2.35
2022-10-02T23:59:25.422Z,2.28
